createdAt,value
2019-02-22T00:05:03.538Z,35.200001
2019-02-22T00:10:26.433Z,35
2019-02-22T00:15:49.298Z,35.599998
2019-02-22T00:21:11.999Z,35.200001
2019-02-22T00:26:36.000Z,36.299999
2019-02-22T00:31:59.144Z,36.700001
2019-02-22T00:37:22.044Z,37.799999
2019-02-22T00:42:44.784Z,38.299999
2019-02-22T00:48:07.576Z,37.700001
2019-02-22T00:53:30.257Z,38.599998
2019-02-22T00:58:53.009Z,36.200001
2019-02-22T01:04:15.842Z,38.299999
2019-02-22T01:09:38.614Z,38.400002
2019-02-22T01:15:01.393Z,38.400002
2019-02-22T01:20:24.205Z,40.200001
2019-02-22T01:25:46.912Z,39.200001
2019-02-22T01:31:09.718Z,40.700001
2019-02-22T01:36:35.608Z,41.799999
2019-02-22T01:42:00.135Z,40.299999
2019-02-22T01:47:22.870Z,41.200001
2019-02-22T01:52:45.604Z,39.799999
2019-02-22T01:58:09.070Z,40.799999
2019-02-22T02:03:31.837Z,40.299999
2019-02-22T02:08:55.643Z,40.599998
2019-02-22T02:14:18.428Z,41.200001
2019-02-22T02:19:41.766Z,41.599998
2019-02-22T02:25:04.613Z,40.299999
2019-02-22T02:30:27.359Z,41
2019-02-22T02:35:50.088Z,40.400002
2019-02-22T02:41:12.649Z,41.299999
2019-02-22T02:46:35.345Z,41
2019-02-22T02:51:58.078Z,41.700001
2019-02-22T02:57:20.930Z,39.700001
2019-02-22T03:02:43.628Z,40.400002
2019-02-22T03:08:06.557Z,40.5
2019-02-22T03:13:29.267Z,39.799999
2019-02-22T03:18:52.119Z,40.099998
2019-02-22T03:24:14.847Z,39.799999
2019-02-22T03:29:38.232Z,39.799999
2019-02-22T03:35:01.055Z,41.700001
2019-02-22T03:40:23.875Z,47.200001
2019-02-22T03:45:46.713Z,47.299999
2019-02-22T03:51:09.651Z,48.200001
2019-02-22T03:56:32.539Z,44.099998
2019-02-22T04:01:55.206Z,43.599998
2019-02-22T04:07:17.921Z,43.400002
2019-02-22T04:12:40.695Z,45
2019-02-22T04:18:03.495Z,44
2019-02-22T04:23:26.321Z,44.599998
2019-02-22T04:28:49.078Z,45
2019-02-22T04:34:11.756Z,44.099998
2019-02-22T04:39:34.494Z,45.700001
2019-02-22T04:44:57.273Z,45.400002
2019-02-22T04:50:20.128Z,45.900002
2019-02-22T04:55:44.733Z,43.400002
2019-02-22T05:01:07.466Z,46
2019-02-22T05:06:30.767Z,45.400002
2019-02-22T05:11:53.699Z,46.900002
2019-02-22T05:17:16.342Z,44.099998
2019-02-22T05:22:39.033Z,46.5
2019-02-22T05:28:01.765Z,44
2019-02-22T05:33:24.857Z,43.599998
2019-02-22T05:38:47.843Z,41.5
2019-02-22T05:44:10.587Z,40.900002
2019-02-22T05:49:33.358Z,40.099998
2019-02-22T05:54:56.259Z,40.700001
2019-02-22T06:00:18.941Z,39.299999
2019-02-22T06:05:41.883Z,39.599998
2019-02-22T06:11:04.561Z,39.5
2019-02-22T06:16:27.292Z,39.700001
2019-02-22T06:21:50.345Z,37.900002
2019-02-22T06:27:13.577Z,36.799999
2019-02-22T06:32:36.683Z,37.400002
2019-02-22T06:37:59.717Z,38.099998
2019-02-22T06:43:22.708Z,37.5
2019-02-22T06:48:45.770Z,37.299999
2019-02-22T06:54:08.831Z,38
2019-02-22T06:59:31.853Z,40.099998
2019-02-22T07:04:54.926Z,39.400002
2019-02-22T07:10:18.076Z,39.700001
2019-02-22T07:15:41.166Z,40.900002
2019-02-22T07:21:04.283Z,39.900002
2019-02-22T07:26:27.264Z,40
2019-02-22T07:31:50.281Z,40.299999
2019-02-22T07:37:14.010Z,39.799999
2019-02-22T07:42:37.053Z,41.599998
2019-02-22T07:48:00.062Z,41.099998
2019-02-22T07:53:23.082Z,40.599998
2019-02-22T07:58:46.214Z,39.799999
2019-02-22T08:04:08.885Z,41.200001
2019-02-22T08:09:31.592Z,39.799999
2019-02-22T08:14:54.387Z,43
2019-02-22T08:20:17.160Z,40.700001
2019-02-22T08:25:39.989Z,40.799999
2019-02-22T08:31:02.772Z,39.5
2019-02-22T08:36:25.464Z,36.900002
2019-02-22T08:41:48.191Z,36.900002
2019-02-22T08:47:10.906Z,32.299999
2019-02-22T08:52:33.609Z,30
2019-02-22T08:57:56.482Z,29.5
2019-02-22T09:03:19.246Z,27.799999
2019-02-22T09:08:41.996Z,26.299999
2019-02-22T09:14:04.975Z,25.6
2019-02-22T09:19:27.824Z,24.9
2019-02-22T09:24:51.459Z,25.5
2019-02-22T09:30:14.249Z,24.9
2019-02-22T09:35:37.455Z,24.4
2019-02-22T09:40:59.897Z,25.200001
2019-02-22T09:46:22.693Z,23.5
2019-02-22T09:51:45.380Z,23.5
2019-02-22T09:57:08.218Z,24.6
2019-02-22T10:02:31.186Z,24.9
2019-02-22T10:07:55.021Z,23.9
2019-02-22T10:13:17.773Z,22.799999
2019-02-22T10:18:40.572Z,23.4
2019-02-22T10:24:03.300Z,23.4
2019-02-22T10:29:26.273Z,24
2019-02-22T10:34:48.980Z,23
2019-02-22T10:40:11.675Z,24.9
2019-02-22T10:45:36.787Z,25.4
2019-02-22T10:50:59.351Z,24.700001
2019-02-22T10:56:21.953Z,25.9
2019-02-22T11:01:44.729Z,25.5
2019-02-22T11:07:07.414Z,24.9
2019-02-22T11:12:30.095Z,24.5
2019-02-22T11:17:52.936Z,25.6
2019-02-22T11:23:15.557Z,22.4
2019-02-22T11:28:39.093Z,22.1
2019-02-22T11:34:02.312Z,24
2019-02-22T11:39:25.113Z,24
2019-02-22T11:44:48.128Z,25
2019-02-22T11:50:10.734Z,24.200001
2019-02-22T11:55:33.420Z,24.700001
2019-02-22T12:00:56.862Z,25.200001
2019-02-22T12:06:19.531Z,25.200001
2019-02-22T12:11:42.189Z,25.5
2019-02-22T12:17:04.904Z,25.9
2019-02-22T12:22:28.477Z,26.4
2019-02-22T12:27:51.131Z,25.700001
2019-02-22T12:33:13.933Z,26.6
2019-02-22T12:38:36.912Z,24.1
2019-02-22T12:44:00.683Z,24
2019-02-22T12:49:23.879Z,24.1
2019-02-22T12:54:47.271Z,21.5
2019-02-22T13:00:09.931Z,22.299999
2019-02-22T13:05:32.623Z,22.299999
2019-02-22T13:10:55.791Z,21.6
2019-02-22T13:16:18.523Z,21.200001
2019-02-22T13:21:41.501Z,20.9
2019-02-22T13:27:04.269Z,20.9
2019-02-22T13:32:27.138Z,20.5
2019-02-22T13:37:49.803Z,20.299999
2019-02-22T13:43:12.521Z,20
2019-02-22T13:48:35.206Z,20.700001
2019-02-22T13:53:57.933Z,20.6
2019-02-22T13:59:20.703Z,18.9
2019-02-22T14:04:43.408Z,20.1
2019-02-22T14:10:06.182Z,20.5
2019-02-22T14:15:37.332Z,18.4
2019-02-22T14:20:52.756Z,17.9
2019-02-22T14:26:16.466Z,18.200001
2019-02-22T14:31:39.238Z,21.4
2019-02-22T14:37:02.238Z,20.700001
2019-02-22T14:42:26.017Z,19.4
2019-02-22T14:47:49.654Z,18.799999
2019-02-22T14:53:19.299Z,19.700001
2019-02-22T14:58:36.033Z,19.299999
2019-02-22T15:03:58.696Z,21.200001
2019-02-22T15:09:21.359Z,27.4
2019-02-22T15:14:44.616Z,26
2019-02-22T15:20:07.368Z,20.1
2019-02-22T15:25:30.059Z,20.299999
2019-02-22T15:30:53.461Z,19.9
2019-02-22T15:36:16.701Z,20.799999
2019-02-22T15:41:40.003Z,19.6
2019-02-22T15:47:11.272Z,18.9
2019-02-22T15:52:26.459Z,19.4
2019-02-22T15:57:49.137Z,20
2019-02-22T16:03:11.917Z,19.6
2019-02-22T16:08:34.580Z,21.299999
2019-02-22T16:13:57.405Z,20.9
2019-02-22T16:19:20.063Z,20.700001
2019-02-22T16:24:42.949Z,20.200001
2019-02-22T16:30:05.676Z,19.200001
2019-02-22T16:35:28.374Z,17.5
2019-02-22T16:40:51.017Z,16.4
2019-02-22T16:46:13.681Z,14.5
2019-02-22T16:51:36.655Z,14
2019-02-22T16:56:59.317Z,12.7
2019-02-22T17:02:23.090Z,12.2
2019-02-22T17:07:45.820Z,12.9
2019-02-22T17:13:08.583Z,10.7
2019-02-22T17:18:31.768Z,10.4
2019-02-22T17:23:54.635Z,10.6
2019-02-22T17:29:17.357Z,16.1
2019-02-22T17:34:40.086Z,15.2
2019-02-22T17:40:02.953Z,12.2
2019-02-22T17:45:25.691Z,12
2019-02-22T17:50:48.362Z,11.3
2019-02-22T17:56:11.002Z,12.3
2019-02-22T18:01:33.741Z,12.5
2019-02-22T18:06:56.483Z,12.7
2019-02-22T18:12:19.179Z,13.1
2019-02-22T18:17:42.916Z,14.6
2019-02-22T18:23:05.657Z,14.7
2019-02-22T18:28:28.335Z,15.5
2019-02-22T18:33:51.017Z,15.6
2019-02-22T18:39:13.797Z,16
2019-02-22T18:44:36.524Z,14.7
2019-02-22T18:49:59.219Z,15.9
2019-02-22T18:55:22.204Z,19.4
2019-02-22T19:00:44.860Z,16
2019-02-22T19:06:07.808Z,16.1
2019-02-22T19:11:30.641Z,16.200001
2019-02-22T19:16:53.968Z,18.700001
2019-02-22T19:22:17.011Z,17.700001
2019-02-22T19:27:40.608Z,16.6
2019-02-22T19:33:03.541Z,28.1
2019-02-22T19:38:26.219Z,46.400002
2019-02-22T19:43:48.926Z,21.4
2019-02-22T19:49:11.661Z,17.299999
2019-02-22T19:54:34.391Z,17.1
2019-02-22T19:59:57.110Z,17.5
2019-02-22T20:05:19.787Z,17.5
2019-02-22T20:10:42.559Z,18.299999
2019-02-22T20:16:06.149Z,18.299999
2019-02-22T20:21:29.096Z,17.799999
2019-02-22T20:26:51.923Z,19.9
2019-02-22T20:32:14.733Z,19.200001
2019-02-22T20:37:38.865Z,18
2019-02-22T20:43:01.373Z,19
2019-02-22T20:48:24.062Z,20.5
2019-02-22T20:53:46.788Z,19.700001
2019-02-22T20:59:12.600Z,20.6
2019-02-22T21:04:35.459Z,19.700001
2019-02-22T21:09:58.145Z,20.1
2019-02-22T21:15:20.837Z,20.6
2019-02-22T21:20:44.116Z,21.5
2019-02-22T21:26:06.857Z,21.4
2019-02-22T21:31:29.557Z,21.299999
2019-02-22T21:36:52.723Z,22.700001
2019-02-22T21:42:19.987Z,21.9
2019-02-22T21:47:40.141Z,21.200001
2019-02-22T21:53:02.844Z,23
2019-02-22T21:58:25.889Z,23.700001
2019-02-22T22:03:51.165Z,23
2019-02-22T22:09:12.450Z,22.299999
2019-02-22T22:14:36.002Z,21.799999
2019-02-22T22:20:00.329Z,22.299999
2019-02-22T22:25:22.872Z,22.799999
2019-02-22T22:30:45.621Z,23.700001
2019-02-22T22:36:08.280Z,23.799999
2019-02-22T22:41:32.466Z,24.299999
2019-02-22T22:46:56.441Z,23.299999
2019-02-22T22:52:19.184Z,23.200001
2019-02-22T22:57:43.108Z,24.700001
2019-02-22T23:03:05.902Z,23.6
2019-02-22T23:08:28.625Z,25.700001
2019-02-22T23:13:51.356Z,25
2019-02-22T23:19:14.067Z,24.6
2019-02-22T23:24:36.779Z,24.1
2019-02-22T23:29:59.595Z,24.9
2019-02-22T23:35:22.303Z,23.299999
2019-02-22T23:40:45.009Z,23.1
2019-02-22T23:46:07.702Z,23.700001
2019-02-22T23:51:30.419Z,23.6
2019-02-22T23:56:53.057Z,22.4
